sensor_id;sensor_type;location;lat;lon;timestamp;temperature;humidity
31038;DHT22;17702;47.590;7.666;2023-12-22T00:02:19;10.50;99.90
31038;DHT22;17702;47.590;7.666;2023-12-22T00:04:45;10.50;99.90
31038;DHT22;17702;47.590;7.666;2023-12-22T00:07:11;10.50;99.90
31038;DHT22;17702;47.590;7.666;2023-12-22T00:09:37;10.40;99.90
31038;DHT22;17702;47.590;7.666;2023-12-22T00:12:03;10.40;99.90
31038;DHT22;17702;47.590;7.666;2023-12-22T00:14:29;10.40;99.90
31038;DHT22;17702;47.590;7.666;2023-12-22T00:16:54;10.50;99.90
31038;DHT22;17702;47.590;7.666;2023-12-22T00:19:20;10.60;99.90
31038;DHT22;17702;47.590;7.666;2023-12-22T00:21:45;10.50;99.90
31038;DHT22;17702;47.590;7.666;2023-12-22T00:24:11;10.60;99.90
31038;DHT22;17702;47.590;7.666;2023-12-22T00:26:36;10.60;99.90
31038;DHT22;17702;47.590;7.666;2023-12-22T00:29:02;10.60;99.90
31038;DHT22;17702;47.590;7.666;2023-12-22T00:31:28;10.60;99.90
31038;DHT22;17702;47.590;7.666;2023-12-22T00:33:53;10.60;99.90
31038;DHT22;17702;47.590;7.666;2023-12-22T00:36:19;10.60;99.90
31038;DHT22;17702;47.590;7.666;2023-12-22T00:38:48;10.70;99.90
31038;DHT22;17702;47.590;7.666;2023-12-22T00:41:14;10.60;99.90
31038;DHT22;17702;47.590;7.666;2023-12-22T00:43:39;10.60;99.90
31038;DHT22;17702;47.590;7.666;2023-12-22T00:46:05;10.60;99.90
31038;DHT22;17702;47.590;7.666;2023-12-22T00:48:30;10.60;99.90
31038;DHT22;17702;47.590;7.666;2023-12-22T00:50:56;10.60;99.90
31038;DHT22;17702;47.590;7.666;2023-12-22T00:53:22;10.50;99.90
31038;DHT22;17702;47.590;7.666;2023-12-22T00:55:48;10.40;99.90
31038;DHT22;17702;47.590;7.666;2023-12-22T00:58:13;10.40;99.90
31038;DHT22;17702;47.590;7.666;2023-12-22T01:00:39;10.40;99.90
31038;DHT22;17702;47.590;7.666;2023-12-22T01:03:04;10.40;99.90
31038;DHT22;17702;47.590;7.666;2023-12-22T01:05:30;10.40;99.90
31038;DHT22;17702;47.590;7.666;2023-12-22T01:07:56;10.40;99.90
31038;DHT22;17702;47.590;7.666;2023-12-22T01:10:21;10.50;99.90
31038;DHT22;17702;47.590;7.666;2023-12-22T01:12:47;10.50;99.90
31038;DHT22;17702;47.590;7.666;2023-12-22T01:15:12;10.50;99.90
31038;DHT22;17702;47.590;7.666;2023-12-22T01:17:38;10.60;99.90
31038;DHT22;17702;47.590;7.666;2023-12-22T01:20:04;10.60;99.90
31038;DHT22;17702;47.590;7.666;2023-12-22T01:22:29;10.60;99.90
31038;DHT22;17702;47.590;7.666;2023-12-22T01:24:57;10.50;99.90
31038;DHT22;17702;47.590;7.666;2023-12-22T01:27:23;10.50;99.90
31038;DHT22;17702;47.590;7.666;2023-12-22T01:29:48;10.60;99.90
31038;DHT22;17702;47.590;7.666;2023-12-22T01:32:14;10.60;99.90
31038;DHT22;17702;47.590;7.666;2023-12-22T01:34:39;10.60;99.90
31038;DHT22;17702;47.590;7.666;2023-12-22T01:37:05;10.60;99.90
31038;DHT22;17702;47.590;7.666;2023-12-22T01:39:31;10.50;99.90
31038;DHT22;17702;47.590;7.666;2023-12-22T01:41:56;10.50;99.90
31038;DHT22;17702;47.590;7.666;2023-12-22T01:44:22;10.50;99.90
31038;DHT22;17702;47.590;7.666;2023-12-22T01:46:49;10.50;99.90
31038;DHT22;17702;47.590;7.666;2023-12-22T01:49:15;10.50;99.90
31038;DHT22;17702;47.590;7.666;2023-12-22T01:51:41;10.60;99.90
31038;DHT22;17702;47.590;7.666;2023-12-22T01:54:07;10.60;99.90
31038;DHT22;17702;47.590;7.666;2023-12-22T01:56:33;10.60;99.90
31038;DHT22;17702;47.590;7.666;2023-12-22T01:59:00;10.60;99.90
31038;DHT22;17702;47.590;7.666;2023-12-22T02:01:27;10.60;99.90
31038;DHT22;17702;47.590;7.666;2023-12-22T02:03:54;10.60;99.90
31038;DHT22;17702;47.590;7.666;2023-12-22T02:06:20;10.50;99.90
31038;DHT22;17702;47.590;7.666;2023-12-22T02:08:48;10.40;99.90
31038;DHT22;17702;47.590;7.666;2023-12-22T02:11:15;10.40;99.90
31038;DHT22;17702;47.590;7.666;2023-12-22T02:13:44;10.40;99.90
31038;DHT22;17702;47.590;7.666;2023-12-22T02:16:18;10.40;99.90
31038;DHT22;17702;47.590;7.666;2023-12-22T02:18:47;10.30;99.90
31038;DHT22;17702;47.590;7.666;2023-12-22T02:21:13;10.30;99.90
31038;DHT22;17702;47.590;7.666;2023-12-22T02:23:39;10.20;99.90
31038;DHT22;17702;47.590;7.666;2023-12-22T02:26:36;10.20;99.90
31038;DHT22;17702;47.590;7.666;2023-12-22T02:29:08;10.20;99.90
31038;DHT22;17702;47.590;7.666;2023-12-22T02:31:44;10.20;99.90
31038;DHT22;17702;47.590;7.666;2023-12-22T02:34:18;10.20;99.90
31038;DHT22;17702;47.590;7.666;2023-12-22T02:36:45;10.10;99.90
31038;DHT22;17702;47.590;7.666;2023-12-22T02:39:14;10.00;99.90
31038;DHT22;17702;47.590;7.666;2023-12-22T02:41:41;10.10;99.90
31038;DHT22;17702;47.590;7.666;2023-12-22T02:44:06;10.10;99.90
31038;DHT22;17702;47.590;7.666;2023-12-22T02:46:32;10.20;99.90
31038;DHT22;17702;47.590;7.666;2023-12-22T02:48:58;10.20;99.90
31038;DHT22;17702;47.590;7.666;2023-12-22T02:51:24;10.20;99.90
31038;DHT22;17702;47.590;7.666;2023-12-22T02:53:49;10.20;99.90
31038;DHT22;17702;47.590;7.666;2023-12-22T02:56:15;10.10;99.90
31038;DHT22;17702;47.590;7.666;2023-12-22T02:58:40;10.10;99.90
31038;DHT22;17702;47.590;7.666;2023-12-22T03:01:06;10.00;99.90
31038;DHT22;17702;47.590;7.666;2023-12-22T03:03:31;10.00;99.90
31038;DHT22;17702;47.590;7.666;2023-12-22T03:05:57;10.00;99.90
31038;DHT22;17702;47.590;7.666;2023-12-22T03:08:22;10.00;99.90
31038;DHT22;17702;47.590;7.666;2023-12-22T03:10:48;10.00;99.90
31038;DHT22;17702;47.590;7.666;2023-12-22T03:13:14;10.00;99.90
31038;DHT22;17702;47.590;7.666;2023-12-22T03:15:39;10.00;99.90
31038;DHT22;17702;47.590;7.666;2023-12-22T03:18:05;10.00;99.90
31038;DHT22;17702;47.590;7.666;2023-12-22T03:20:30;10.00;99.90
31038;DHT22;17702;47.590;7.666;2023-12-22T03:22:56;10.00;99.90
31038;DHT22;17702;47.590;7.666;2023-12-22T03:25:21;10.00;99.90
31038;DHT22;17702;47.590;7.666;2023-12-22T03:27:47;10.00;99.90
31038;DHT22;17702;47.590;7.666;2023-12-22T03:30:13;10.00;99.90
31038;DHT22;17702;47.590;7.666;2023-12-22T03:32:38;10.00;99.90
31038;DHT22;17702;47.590;7.666;2023-12-22T03:35:04;10.00;99.90
31038;DHT22;17702;47.590;7.666;2023-12-22T03:37:30;10.00;99.90
31038;DHT22;17702;47.590;7.666;2023-12-22T03:39:55;9.90;99.90
31038;DHT22;17702;47.590;7.666;2023-12-22T03:42:21;9.90;99.90
31038;DHT22;17702;47.590;7.666;2023-12-22T03:44:47;9.90;99.90
31038;DHT22;17702;47.590;7.666;2023-12-22T03:47:12;9.90;99.90
31038;DHT22;17702;47.590;7.666;2023-12-22T03:49:38;10.00;99.90
31038;DHT22;17702;47.590;7.666;2023-12-22T03:52:04;10.00;99.90
31038;DHT22;17702;47.590;7.666;2023-12-22T03:54:29;10.00;99.90
31038;DHT22;17702;47.590;7.666;2023-12-22T03:56:55;10.00;99.90
31038;DHT22;17702;47.590;7.666;2023-12-22T03:59:20;9.90;99.90
31038;DHT22;17702;47.590;7.666;2023-12-22T04:01:52;9.90;99.90
31038;DHT22;17702;47.590;7.666;2023-12-22T04:04:21;9.90;99.90
31038;DHT22;17702;47.590;7.666;2023-12-22T04:06:52;9.90;99.90
31038;DHT22;17702;47.590;7.666;2023-12-22T04:09:18;9.90;99.90
31038;DHT22;17702;47.590;7.666;2023-12-22T04:11:44;9.90;99.90
31038;DHT22;17702;47.590;7.666;2023-12-22T04:14:09;9.90;99.90
31038;DHT22;17702;47.590;7.666;2023-12-22T04:16:38;9.90;99.90
31038;DHT22;17702;47.590;7.666;2023-12-22T04:19:04;9.80;99.90
31038;DHT22;17702;47.590;7.666;2023-12-22T04:21:29;9.80;99.90
31038;DHT22;17702;47.590;7.666;2023-12-22T04:23:55;9.80;99.90
31038;DHT22;17702;47.590;7.666;2023-12-22T04:26:20;9.90;99.90
31038;DHT22;17702;47.590;7.666;2023-12-22T04:28:46;9.90;99.90
31038;DHT22;17702;47.590;7.666;2023-12-22T04:31:12;9.90;99.90
31038;DHT22;17702;47.590;7.666;2023-12-22T04:33:37;9.90;99.90
31038;DHT22;17702;47.590;7.666;2023-12-22T04:36:03;9.90;99.90
31038;DHT22;17702;47.590;7.666;2023-12-22T04:38:28;9.90;99.90
31038;DHT22;17702;47.590;7.666;2023-12-22T04:40:54;9.90;99.90
31038;DHT22;17702;47.590;7.666;2023-12-22T04:43:20;9.90;99.90
31038;DHT22;17702;47.590;7.666;2023-12-22T04:45:45;10.00;99.90
31038;DHT22;17702;47.590;7.666;2023-12-22T04:48:11;10.00;99.90
31038;DHT22;17702;47.590;7.666;2023-12-22T04:50:36;10.00;99.90
31038;DHT22;17702;47.590;7.666;2023-12-22T04:53:02;10.00;99.90
31038;DHT22;17702;47.590;7.666;2023-12-22T04:55:28;10.10;99.90
31038;DHT22;17702;47.590;7.666;2023-12-22T04:57:53;10.20;99.90
31038;DHT22;17702;47.590;7.666;2023-12-22T05:00:19;10.10;99.90
31038;DHT22;17702;47.590;7.666;2023-12-22T05:02:44;10.10;99.90
31038;DHT22;17702;47.590;7.666;2023-12-22T05:05:10;10.10;99.90
31038;DHT22;17702;47.590;7.666;2023-12-22T05:07:37;10.10;99.90
31038;DHT22;17702;47.590;7.666;2023-12-22T05:10:06;10.10;99.90
31038;DHT22;17702;47.590;7.666;2023-12-22T05:12:32;10.10;99.90
31038;DHT22;17702;47.590;7.666;2023-12-22T05:14:58;9.90;99.90
31038;DHT22;17702;47.590;7.666;2023-12-22T05:17:23;9.90;99.90
31038;DHT22;17702;47.590;7.666;2023-12-22T05:19:49;10.00;99.90
31038;DHT22;17702;47.590;7.666;2023-12-22T05:22:14;9.90;99.90
31038;DHT22;17702;47.590;7.666;2023-12-22T05:24:40;10.00;99.90
31038;DHT22;17702;47.590;7.666;2023-12-22T05:27:07;10.00;99.90
31038;DHT22;17702;47.590;7.666;2023-12-22T05:29:32;10.00;99.90
31038;DHT22;17702;47.590;7.666;2023-12-22T05:31:58;10.00;99.90
31038;DHT22;17702;47.590;7.666;2023-12-22T05:34:23;10.00;99.90
31038;DHT22;17702;47.590;7.666;2023-12-22T05:36:49;10.00;99.90
31038;DHT22;17702;47.590;7.666;2023-12-22T05:39:14;10.00;99.90
31038;DHT22;17702;47.590;7.666;2023-12-22T05:41:40;9.90;99.90
31038;DHT22;17702;47.590;7.666;2023-12-22T05:44:05;10.00;99.90
31038;DHT22;17702;47.590;7.666;2023-12-22T05:46:36;10.00;99.90
31038;DHT22;17702;47.590;7.666;2023-12-22T05:49:02;10.00;99.90
31038;DHT22;17702;47.590;7.666;2023-12-22T05:51:28;10.00;99.90
31038;DHT22;17702;47.590;7.666;2023-12-22T05:53:53;10.00;99.90
31038;DHT22;17702;47.590;7.666;2023-12-22T05:56:19;10.00;99.90
31038;DHT22;17702;47.590;7.666;2023-12-22T05:58:46;10.00;99.90
31038;DHT22;17702;47.590;7.666;2023-12-22T06:01:18;10.00;99.90
31038;DHT22;17702;47.590;7.666;2023-12-22T06:03:46;9.90;99.90
31038;DHT22;17702;47.590;7.666;2023-12-22T06:06:12;9.80;99.90
31038;DHT22;17702;47.590;7.666;2023-12-22T06:08:38;9.70;99.90
31038;DHT22;17702;47.590;7.666;2023-12-22T06:11:04;9.70;99.90
31038;DHT22;17702;47.590;7.666;2023-12-22T06:13:33;9.70;99.90
31038;DHT22;17702;47.590;7.666;2023-12-22T06:15:59;9.70;99.90
31038;DHT22;17702;47.590;7.666;2023-12-22T06:18:24;9.70;99.90
31038;DHT22;17702;47.590;7.666;2023-12-22T06:20:50;9.70;99.90
31038;DHT22;17702;47.590;7.666;2023-12-22T06:23:16;9.80;99.90
31038;DHT22;17702;47.590;7.666;2023-12-22T06:25:42;9.70;99.90
31038;DHT22;17702;47.590;7.666;2023-12-22T06:28:07;9.60;99.90
31038;DHT22;17702;47.590;7.666;2023-12-22T06:30:33;9.60;99.90
31038;DHT22;17702;47.590;7.666;2023-12-22T06:32:58;9.60;99.90
31038;DHT22;17702;47.590;7.666;2023-12-22T06:35:24;9.60;99.90
31038;DHT22;17702;47.590;7.666;2023-12-22T06:37:51;9.70;99.90
31038;DHT22;17702;47.590;7.666;2023-12-22T06:40:17;9.70;99.90
31038;DHT22;17702;47.590;7.666;2023-12-22T06:42:44;9.70;99.90
31038;DHT22;17702;47.590;7.666;2023-12-22T06:45:10;9.70;99.90
31038;DHT22;17702;47.590;7.666;2023-12-22T06:47:36;9.60;99.90
31038;DHT22;17702;47.590;7.666;2023-12-22T06:50:01;9.60;99.90
31038;DHT22;17702;47.590;7.666;2023-12-22T06:52:28;9.60;99.90
31038;DHT22;17702;47.590;7.666;2023-12-22T06:54:54;9.60;99.90
31038;DHT22;17702;47.590;7.666;2023-12-22T06:57:19;9.70;99.90
31038;DHT22;17702;47.590;7.666;2023-12-22T06:59:46;9.60;99.90
31038;DHT22;17702;47.590;7.666;2023-12-22T07:02:13;9.70;99.90
31038;DHT22;17702;47.590;7.666;2023-12-22T07:05:05;9.60;99.90
31038;DHT22;17702;47.590;7.666;2023-12-22T07:07:44;9.60;99.90
31038;DHT22;17702;47.590;7.666;2023-12-22T07:10:10;9.60;99.90
31038;DHT22;17702;47.590;7.666;2023-12-22T07:12:37;9.60;99.90
31038;DHT22;17702;47.590;7.666;2023-12-22T07:15:07;9.60;99.90
31038;DHT22;17702;47.590;7.666;2023-12-22T07:17:33;9.70;99.90
31038;DHT22;17702;47.590;7.666;2023-12-22T07:19:59;9.70;99.90
31038;DHT22;17702;47.590;7.666;2023-12-22T07:22:25;9.70;99.90
31038;DHT22;17702;47.590;7.666;2023-12-22T07:24:50;9.70;99.90
31038;DHT22;17702;47.590;7.666;2023-12-22T07:27:18;9.70;99.90
31038;DHT22;17702;47.590;7.666;2023-12-22T07:29:43;9.70;99.90
31038;DHT22;17702;47.590;7.666;2023-12-22T07:32:09;9.60;99.90
31038;DHT22;17702;47.590;7.666;2023-12-22T07:34:34;9.60;99.90
31038;DHT22;17702;47.590;7.666;2023-12-22T07:37:01;9.60;99.90
31038;DHT22;17702;47.590;7.666;2023-12-22T07:39:26;9.60;99.90
31038;DHT22;17702;47.590;7.666;2023-12-22T07:41:52;9.60;99.90
31038;DHT22;17702;47.590;7.666;2023-12-22T07:44:17;9.60;99.90
31038;DHT22;17702;47.590;7.666;2023-12-22T07:46:43;9.60;99.90
31038;DHT22;17702;47.590;7.666;2023-12-22T07:49:08;9.60;99.90
31038;DHT22;17702;47.590;7.666;2023-12-22T07:51:36;9.60;99.90
31038;DHT22;17702;47.590;7.666;2023-12-22T07:54:02;9.60;99.90
31038;DHT22;17702;47.590;7.666;2023-12-22T07:56:27;9.60;99.90
31038;DHT22;17702;47.590;7.666;2023-12-22T07:58:53;9.60;99.90
31038;DHT22;17702;47.590;7.666;2023-12-22T08:01:19;9.70;99.90
31038;DHT22;17702;47.590;7.666;2023-12-22T08:03:44;9.60;99.90
31038;DHT22;17702;47.590;7.666;2023-12-22T08:06:10;9.70;99.90
31038;DHT22;17702;47.590;7.666;2023-12-22T08:08:35;9.70;99.90
31038;DHT22;17702;47.590;7.666;2023-12-22T08:11:02;9.70;99.90
31038;DHT22;17702;47.590;7.666;2023-12-22T08:13:27;9.70;99.90
31038;DHT22;17702;47.590;7.666;2023-12-22T08:15:53;9.70;99.90
31038;DHT22;17702;47.590;7.666;2023-12-22T08:18:18;9.70;99.90
31038;DHT22;17702;47.590;7.666;2023-12-22T08:20:44;9.60;99.90
31038;DHT22;17702;47.590;7.666;2023-12-22T08:23:09;9.70;99.90
31038;DHT22;17702;47.590;7.666;2023-12-22T08:25:37;9.80;99.90
31038;DHT22;17702;47.590;7.666;2023-12-22T08:28:04;9.80;99.90
31038;DHT22;17702;47.590;7.666;2023-12-22T08:30:30;9.80;99.90
31038;DHT22;17702;47.590;7.666;2023-12-22T08:32:55;9.80;99.90
31038;DHT22;17702;47.590;7.666;2023-12-22T08:35:21;9.80;99.90
31038;DHT22;17702;47.590;7.666;2023-12-22T08:37:46;9.80;99.90
31038;DHT22;17702;47.590;7.666;2023-12-22T08:40:12;9.80;99.90
31038;DHT22;17702;47.590;7.666;2023-12-22T08:42:38;9.70;99.90
31038;DHT22;17702;47.590;7.666;2023-12-22T08:45:05;9.80;99.90
31038;DHT22;17702;47.590;7.666;2023-12-22T08:47:30;9.80;99.90
31038;DHT22;17702;47.590;7.666;2023-12-22T08:49:56;9.90;99.90
31038;DHT22;17702;47.590;7.666;2023-12-22T08:52:22;9.80;99.90
31038;DHT22;17702;47.590;7.666;2023-12-22T08:54:47;9.80;99.90
31038;DHT22;17702;47.590;7.666;2023-12-22T08:57:13;9.80;99.90
31038;DHT22;17702;47.590;7.666;2023-12-22T08:59:38;9.80;99.90
31038;DHT22;17702;47.590;7.666;2023-12-22T09:02:04;9.80;99.90
31038;DHT22;17702;47.590;7.666;2023-12-22T09:04:31;9.90;99.90
31038;DHT22;17702;47.590;7.666;2023-12-22T09:06:56;9.90;99.90
31038;DHT22;17702;47.590;7.666;2023-12-22T09:09:22;10.00;99.90
31038;DHT22;17702;47.590;7.666;2023-12-22T09:11:49;9.90;99.90
31038;DHT22;17702;47.590;7.666;2023-12-22T09:14:15;9.80;99.90
31038;DHT22;17702;47.590;7.666;2023-12-22T09:16:41;9.80;99.90
31038;DHT22;17702;47.590;7.666;2023-12-22T09:19:08;9.80;99.90
31038;DHT22;17702;47.590;7.666;2023-12-22T09:21:33;9.80;99.90
31038;DHT22;17702;47.590;7.666;2023-12-22T09:23:59;9.70;99.90
31038;DHT22;17702;47.590;7.666;2023-12-22T09:26:24;9.70;99.90
31038;DHT22;17702;47.590;7.666;2023-12-22T09:28:50;9.70;99.90
31038;DHT22;17702;47.590;7.666;2023-12-22T09:31:16;9.60;99.90
31038;DHT22;17702;47.590;7.666;2023-12-22T09:33:43;9.70;99.90
31038;DHT22;17702;47.590;7.666;2023-12-22T09:36:10;9.70;99.90
31038;DHT22;17702;47.590;7.666;2023-12-22T09:38:37;9.70;99.90
31038;DHT22;17702;47.590;7.666;2023-12-22T09:41:03;9.80;99.90
31038;DHT22;17702;47.590;7.666;2023-12-22T09:43:29;9.80;99.90
31038;DHT22;17702;47.590;7.666;2023-12-22T09:45:56;9.90;99.90
31038;DHT22;17702;47.590;7.666;2023-12-22T09:48:23;9.90;99.90
31038;DHT22;17702;47.590;7.666;2023-12-22T09:50:54;9.90;99.90
31038;DHT22;17702;47.590;7.666;2023-12-22T09:53:21;9.90;99.90
31038;DHT22;17702;47.590;7.666;2023-12-22T09:55:47;9.90;99.90
31038;DHT22;17702;47.590;7.666;2023-12-22T09:58:14;9.90;99.90
31038;DHT22;17702;47.590;7.666;2023-12-22T10:00:42;9.80;99.90
31038;DHT22;17702;47.590;7.666;2023-12-22T10:03:09;9.80;99.90
31038;DHT22;17702;47.590;7.666;2023-12-22T10:05:36;9.90;99.90
31038;DHT22;17702;47.590;7.666;2023-12-22T10:08:02;9.90;99.90
31038;DHT22;17702;47.590;7.666;2023-12-22T10:10:29;10.00;99.90
31038;DHT22;17702;47.590;7.666;2023-12-22T10:12:56;10.00;99.90
31038;DHT22;17702;47.590;7.666;2023-12-22T10:15:22;10.00;99.90
31038;DHT22;17702;47.590;7.666;2023-12-22T10:17:53;10.00;99.90
31038;DHT22;17702;47.590;7.666;2023-12-22T10:20:18;10.10;99.90
31038;DHT22;17702;47.590;7.666;2023-12-22T10:22:44;10.10;99.90
31038;DHT22;17702;47.590;7.666;2023-12-22T10:25:10;10.10;99.90
31038;DHT22;17702;47.590;7.666;2023-12-22T10:27:36;10.20;99.90
31038;DHT22;17702;47.590;7.666;2023-12-22T10:30:03;10.20;99.90
31038;DHT22;17702;47.590;7.666;2023-12-22T10:32:29;10.20;99.90
31038;DHT22;17702;47.590;7.666;2023-12-22T10:34:56;10.30;99.90
31038;DHT22;17702;47.590;7.666;2023-12-22T10:37:24;10.20;99.90
31038;DHT22;17702;47.590;7.666;2023-12-22T10:39:53;10.20;99.90
31038;DHT22;17702;47.590;7.666;2023-12-22T10:42:19;10.20;99.90
31038;DHT22;17702;47.590;7.666;2023-12-22T10:44:45;10.20;99.90
31038;DHT22;17702;47.590;7.666;2023-12-22T10:47:11;10.10;99.90
31038;DHT22;17702;47.590;7.666;2023-12-22T10:49:37;10.10;99.90
31038;DHT22;17702;47.590;7.666;2023-12-22T10:52:03;10.10;99.90
31038;DHT22;17702;47.590;7.666;2023-12-22T10:54:30;10.20;99.90
31038;DHT22;17702;47.590;7.666;2023-12-22T10:57:00;10.30;99.90
31038;DHT22;17702;47.590;7.666;2023-12-22T10:59:29;10.20;99.90
31038;DHT22;17702;47.590;7.666;2023-12-22T11:01:57;10.20;99.90
31038;DHT22;17702;47.590;7.666;2023-12-22T11:04:29;10.30;99.90
31038;DHT22;17702;47.590;7.666;2023-12-22T11:06:57;10.40;99.90
31038;DHT22;17702;47.590;7.666;2023-12-22T11:09:24;10.40;99.90
31038;DHT22;17702;47.590;7.666;2023-12-22T11:11:52;10.40;99.90
31038;DHT22;17702;47.590;7.666;2023-12-22T11:14:19;10.40;99.90
31038;DHT22;17702;47.590;7.666;2023-12-22T11:16:45;10.40;99.90
31038;DHT22;17702;47.590;7.666;2023-12-22T11:19:14;10.40;99.90
31038;DHT22;17702;47.590;7.666;2023-12-22T11:21:40;10.40;99.90
31038;DHT22;17702;47.590;7.666;2023-12-22T11:24:07;10.50;99.90
31038;DHT22;17702;47.590;7.666;2023-12-22T11:26:33;10.50;99.90
31038;DHT22;17702;47.590;7.666;2023-12-22T11:28:59;10.60;99.90
31038;DHT22;17702;47.590;7.666;2023-12-22T11:31:31;10.60;99.90
31038;DHT22;17702;47.590;7.666;2023-12-22T11:33:58;10.50;99.90
31038;DHT22;17702;47.590;7.666;2023-12-22T11:36:25;10.60;99.90
31038;DHT22;17702;47.590;7.666;2023-12-22T11:38:52;10.60;99.90
31038;DHT22;17702;47.590;7.666;2023-12-22T11:41:28;10.60;99.90
31038;DHT22;17702;47.590;7.666;2023-12-22T11:43:56;10.60;99.90
31038;DHT22;17702;47.590;7.666;2023-12-22T11:46:22;10.50;99.90
31038;DHT22;17702;47.590;7.666;2023-12-22T11:48:52;10.50;99.90
31038;DHT22;17702;47.590;7.666;2023-12-22T11:51:19;10.50;99.90
31038;DHT22;17702;47.590;7.666;2023-12-22T11:53:45;10.60;99.90
31038;DHT22;17702;47.590;7.666;2023-12-22T11:56:11;10.70;99.90
31038;DHT22;17702;47.590;7.666;2023-12-22T11:58:48;10.70;99.90
31038;DHT22;17702;47.590;7.666;2023-12-22T12:01:23;10.70;99.90
31038;DHT22;17702;47.590;7.666;2023-12-22T12:03:55;10.70;99.90
31038;DHT22;17702;47.590;7.666;2023-12-22T12:08:53;10.60;99.90
31038;DHT22;17702;47.590;7.666;2023-12-22T12:11:19;10.60;99.90
31038;DHT22;17702;47.590;7.666;2023-12-22T12:13:46;10.70;99.90
31038;DHT22;17702;47.590;7.666;2023-12-22T12:16:19;10.70;99.90
31038;DHT22;17702;47.590;7.666;2023-12-22T12:18:46;10.60;99.90
31038;DHT22;17702;47.590;7.666;2023-12-22T12:21:13;10.70;99.90
31038;DHT22;17702;47.590;7.666;2023-12-22T12:23:41;10.70;99.90
31038;DHT22;17702;47.590;7.666;2023-12-22T12:26:07;10.60;99.90
31038;DHT22;17702;47.590;7.666;2023-12-22T12:28:35;10.60;99.90
31038;DHT22;17702;47.590;7.666;2023-12-22T12:31:06;10.70;99.90
31038;DHT22;17702;47.590;7.666;2023-12-22T12:33:32;10.70;99.90
31038;DHT22;17702;47.590;7.666;2023-12-22T12:36:00;10.70;99.90
31038;DHT22;17702;47.590;7.666;2023-12-22T12:41:09;10.80;99.90
31038;DHT22;17702;47.590;7.666;2023-12-22T12:43:41;10.80;99.90
31038;DHT22;17702;47.590;7.666;2023-12-22T12:46:08;10.80;99.90
31038;DHT22;17702;47.590;7.666;2023-12-22T12:48:33;10.80;99.90
31038;DHT22;17702;47.590;7.666;2023-12-22T12:51:04;10.80;99.90
31038;DHT22;17702;47.590;7.666;2023-12-22T12:53:31;10.80;99.90
31038;DHT22;17702;47.590;7.666;2023-12-22T12:55:58;10.80;99.90
31038;DHT22;17702;47.590;7.666;2023-12-22T12:58:31;10.90;99.90
31038;DHT22;17702;47.590;7.666;2023-12-22T13:01:07;11.00;99.90
31038;DHT22;17702;47.590;7.666;2023-12-22T13:03:33;11.00;99.90
31038;DHT22;17702;47.590;7.666;2023-12-22T13:06:16;11.00;99.90
31038;DHT22;17702;47.590;7.666;2023-12-22T13:08:50;11.10;99.90
31038;DHT22;17702;47.590;7.666;2023-12-22T13:11:36;11.10;99.90
31038;DHT22;17702;47.590;7.666;2023-12-22T13:14:03;11.00;99.90
31038;DHT22;17702;47.590;7.666;2023-12-22T13:16:28;11.00;99.90
31038;DHT22;17702;47.590;7.666;2023-12-22T13:18:57;11.00;99.90
31038;DHT22;17702;47.590;7.666;2023-12-22T13:21:24;11.00;99.90
31038;DHT22;17702;47.590;7.666;2023-12-22T13:26:33;11.10;99.90
31038;DHT22;17702;47.590;7.666;2023-12-22T13:28:59;11.00;99.90
31038;DHT22;17702;47.590;7.666;2023-12-22T13:31:26;11.00;99.90
31038;DHT22;17702;47.590;7.666;2023-12-22T13:33:52;11.00;99.90
31038;DHT22;17702;47.590;7.666;2023-12-22T13:36:18;11.00;99.90
31038;DHT22;17702;47.590;7.666;2023-12-22T13:38:50;11.00;99.90
31038;DHT22;17702;47.590;7.666;2023-12-22T13:41:16;11.00;99.90
31038;DHT22;17702;47.590;7.666;2023-12-22T13:43:42;10.90;99.90
31038;DHT22;17702;47.590;7.666;2023-12-22T13:46:10;10.90;99.90
31038;DHT22;17702;47.590;7.666;2023-12-22T13:48:36;10.90;99.90
31038;DHT22;17702;47.590;7.666;2023-12-22T13:51:02;10.80;99.90
31038;DHT22;17702;47.590;7.666;2023-12-22T13:53:28;10.80;99.90
31038;DHT22;17702;47.590;7.666;2023-12-22T13:55:59;10.80;99.90
31038;DHT22;17702;47.590;7.666;2023-12-22T13:58:25;10.80;99.90
31038;DHT22;17702;47.590;7.666;2023-12-22T14:00:51;10.80;99.90
31038;DHT22;17702;47.590;7.666;2023-12-22T14:03:17;10.70;99.90
31038;DHT22;17702;47.590;7.666;2023-12-22T14:05:50;10.90;99.90
31038;DHT22;17702;47.590;7.666;2023-12-22T14:08:17;10.90;99.90
31038;DHT22;17702;47.590;7.666;2023-12-22T14:10:49;11.00;99.90
31038;DHT22;17702;47.590;7.666;2023-12-22T14:13:16;11.00;99.90
31038;DHT22;17702;47.590;7.666;2023-12-22T14:15:42;11.00;99.90
31038;DHT22;17702;47.590;7.666;2023-12-22T14:18:11;11.00;99.90
31038;DHT22;17702;47.590;7.666;2023-12-22T14:20:36;11.00;99.90
31038;DHT22;17702;47.590;7.666;2023-12-22T14:23:02;11.00;99.90
31038;DHT22;17702;47.590;7.666;2023-12-22T14:25:29;11.00;99.90
31038;DHT22;17702;47.590;7.666;2023-12-22T14:27:55;11.00;99.90
31038;DHT22;17702;47.590;7.666;2023-12-22T14:30:25;10.90;99.90
31038;DHT22;17702;47.590;7.666;2023-12-22T14:32:51;10.80;99.90
31038;DHT22;17702;47.590;7.666;2023-12-22T14:35:16;10.80;99.90
31038;DHT22;17702;47.590;7.666;2023-12-22T14:37:42;10.80;99.90
31038;DHT22;17702;47.590;7.666;2023-12-22T14:40:08;10.90;99.90
31038;DHT22;17702;47.590;7.666;2023-12-22T14:42:34;10.90;99.90
31038;DHT22;17702;47.590;7.666;2023-12-22T14:44:59;11.00;99.90
31038;DHT22;17702;47.590;7.666;2023-12-22T14:47:27;10.90;99.90
31038;DHT22;17702;47.590;7.666;2023-12-22T14:49:52;10.90;99.90
31038;DHT22;17702;47.590;7.666;2023-12-22T14:52:18;10.90;99.90
31038;DHT22;17702;47.590;7.666;2023-12-22T14:54:43;10.80;99.90
31038;DHT22;17702;47.590;7.666;2023-12-22T14:57:09;10.90;99.90
31038;DHT22;17702;47.590;7.666;2023-12-22T14:59:35;11.00;99.90
31038;DHT22;17702;47.590;7.666;2023-12-22T15:02:01;11.00;99.90
31038;DHT22;17702;47.590;7.666;2023-12-22T15:04:27;10.90;99.90
31038;DHT22;17702;47.590;7.666;2023-12-22T15:06:52;11.00;99.90
31038;DHT22;17702;47.590;7.666;2023-12-22T15:09:18;11.00;99.90
31038;DHT22;17702;47.590;7.666;2023-12-22T15:11:45;11.00;99.90
31038;DHT22;17702;47.590;7.666;2023-12-22T15:14:11;11.00;99.90
31038;DHT22;17702;47.590;7.666;2023-12-22T15:16:43;10.90;99.90
31038;DHT22;17702;47.590;7.666;2023-12-22T15:19:13;10.90;99.90
31038;DHT22;17702;47.590;7.666;2023-12-22T15:21:39;10.90;99.90
31038;DHT22;17702;47.590;7.666;2023-12-22T15:24:05;10.90;99.90
31038;DHT22;17702;47.590;7.666;2023-12-22T15:26:31;10.90;99.90
31038;DHT22;17702;47.590;7.666;2023-12-22T15:28:59;11.00;99.90
31038;DHT22;17702;47.590;7.666;2023-12-22T15:31:25;10.90;99.90
31038;DHT22;17702;47.590;7.666;2023-12-22T15:33:50;10.80;99.90
31038;DHT22;17702;47.590;7.666;2023-12-22T15:36:17;10.90;99.90
31038;DHT22;17702;47.590;7.666;2023-12-22T15:38:44;10.90;99.90
31038;DHT22;17702;47.590;7.666;2023-12-22T15:41:10;10.90;99.90